sensor_id;sensor_type;location;lat;lon;timestamp;P1;durP1;ratioP1;P2;durP2;ratioP2
64674;SDS011;51090;51.512;11.332;2023-05-16T00:02:16;3.83;;;2.35;;
64674;SDS011;51090;51.512;11.332;2023-05-16T00:04:43;6.13;;;2.60;;
64674;SDS011;51090;51.512;11.332;2023-05-16T00:07:10;4.30;;;2.33;;
64674;SDS011;51090;51.512;11.332;2023-05-16T00:09:36;5.07;;;2.42;;
64674;SDS011;51090;51.512;11.332;2023-05-16T00:12:02;6.13;;;2.53;;
64674;SDS011;51090;51.512;11.332;2023-05-16T00:14:28;8.68;;;2.67;;
64674;SDS011;51090;51.512;11.332;2023-05-16T00:16:54;5.55;;;2.58;;
64674;SDS011;51090;51.512;11.332;2023-05-16T00:19:22;6.68;;;2.88;;
64674;SDS011;51090;51.512;11.332;2023-05-16T00:21:50;4.50;;;2.58;;
64674;SDS011;51090;51.512;11.332;2023-05-16T00:24:16;5.05;;;3.05;;
64674;SDS011;51090;51.512;11.332;2023-05-16T00:26:42;8.73;;;3.40;;
64674;SDS011;51090;51.512;11.332;2023-05-16T00:29:08;5.82;;;2.70;;
64674;SDS011;51090;51.512;11.332;2023-05-16T00:31:34;6.13;;;3.17;;
64674;SDS011;51090;51.512;11.332;2023-05-16T00:34:00;5.53;;;3.47;;
64674;SDS011;51090;51.512;11.332;2023-05-16T00:36:26;5.53;;;3.47;;
64674;SDS011;51090;51.512;11.332;2023-05-16T00:38:52;4.72;;;3.22;;
64674;SDS011;51090;51.512;11.332;2023-05-16T00:41:18;7.10;;;3.20;;
64674;SDS011;51090;51.512;11.332;2023-05-16T00:43:45;7.70;;;3.47;;
64674;SDS011;51090;51.512;11.332;2023-05-16T00:46:10;5.07;;;3.08;;
64674;SDS011;51090;51.512;11.332;2023-05-16T00:48:36;5.55;;;3.53;;
64674;SDS011;51090;51.512;11.332;2023-05-16T00:51:02;4.20;;;3.05;;
64674;SDS011;51090;51.512;11.332;2023-05-16T00:53:28;3.88;;;3.10;;
64674;SDS011;51090;51.512;11.332;2023-05-16T00:55:55;4.95;;;3.95;;
64674;SDS011;51090;51.512;11.332;2023-05-16T00:58:20;6.40;;;3.92;;
64674;SDS011;51090;51.512;11.332;2023-05-16T01:00:48;5.97;;;4.38;;
64674;SDS011;51090;51.512;11.332;2023-05-16T01:03:14;6.65;;;3.70;;
64674;SDS011;51090;51.512;11.332;2023-05-16T01:05:40;7.93;;;4.78;;
64674;SDS011;51090;51.512;11.332;2023-05-16T01:08:06;6.82;;;4.15;;
64674;SDS011;51090;51.512;11.332;2023-05-16T01:10:34;7.95;;;4.60;;
64674;SDS011;51090;51.512;11.332;2023-05-16T01:28:15;9.10;;;5.55;;
64674;SDS011;51090;51.512;11.332;2023-05-16T01:30:41;8.32;;;4.15;;
64674;SDS011;51090;51.512;11.332;2023-05-16T01:33:07;7.80;;;5.60;;
64674;SDS011;51090;51.512;11.332;2023-05-16T01:35:34;8.40;;;4.93;;
64674;SDS011;51090;51.512;11.332;2023-05-16T01:38:19;7.22;;;4.07;;
64674;SDS011;51090;51.512;11.332;2023-05-16T01:41:03;8.02;;;4.25;;
64674;SDS011;51090;51.512;11.332;2023-05-16T01:43:43;6.70;;;4.38;;
64674;SDS011;51090;51.512;11.332;2023-05-16T01:46:13;7.95;;;5.00;;
64674;SDS011;51090;51.512;11.332;2023-05-16T01:48:57;7.25;;;4.65;;
64674;SDS011;51090;51.512;11.332;2023-05-16T01:51:41;9.15;;;6.22;;
64674;SDS011;51090;51.512;11.332;2023-05-16T01:54:25;9.27;;;6.28;;
64674;SDS011;51090;51.512;11.332;2023-05-16T01:56:57;14.10;;;7.40;;
64674;SDS011;51090;51.512;11.332;2023-05-16T01:59:24;10.95;;;7.15;;
64674;SDS011;51090;51.512;11.332;2023-05-16T02:01:55;11.45;;;7.20;;
64674;SDS011;51090;51.512;11.332;2023-05-16T02:04:21;12.20;;;8.20;;
64674;SDS011;51090;51.512;11.332;2023-05-16T02:06:48;12.60;;;7.82;;
64674;SDS011;51090;51.512;11.332;2023-05-16T02:09:15;14.85;;;9.63;;
64674;SDS011;51090;51.512;11.332;2023-05-16T02:11:40;15.70;;;9.55;;
64674;SDS011;51090;51.512;11.332;2023-05-16T02:14:06;18.83;;;9.93;;
64674;SDS011;51090;51.512;11.332;2023-05-16T02:16:32;16.02;;;10.38;;
64674;SDS011;51090;51.512;11.332;2023-05-16T02:18:58;14.57;;;8.90;;
64674;SDS011;51090;51.512;11.332;2023-05-16T02:21:24;16.90;;;10.82;;
64674;SDS011;51090;51.512;11.332;2023-05-16T02:23:49;18.58;;;11.02;;
64674;SDS011;51090;51.512;11.332;2023-05-16T02:26:15;21.52;;;11.85;;
64674;SDS011;51090;51.512;11.332;2023-05-16T02:28:41;18.27;;;11.25;;
64674;SDS011;51090;51.512;11.332;2023-05-16T02:31:07;18.02;;;11.75;;
64674;SDS011;51090;51.512;11.332;2023-05-16T02:33:32;18.50;;;11.32;;
64674;SDS011;51090;51.512;11.332;2023-05-16T02:35:58;22.63;;;13.57;;
64674;SDS011;51090;51.512;11.332;2023-05-16T02:38:25;21.75;;;14.00;;
64674;SDS011;51090;51.512;11.332;2023-05-16T02:40:51;23.27;;;14.00;;
64674;SDS011;51090;51.512;11.332;2023-05-16T02:43:17;19.33;;;12.27;;
64674;SDS011;51090;51.512;11.332;2023-05-16T02:45:43;21.42;;;13.60;;
64674;SDS011;51090;51.512;11.332;2023-05-16T02:48:09;18.30;;;10.77;;
64674;SDS011;51090;51.512;11.332;2023-05-16T02:50:36;19.73;;;11.25;;
64674;SDS011;51090;51.512;11.332;2023-05-16T02:53:04;18.15;;;10.60;;
64674;SDS011;51090;51.512;11.332;2023-05-16T02:55:30;17.48;;;10.20;;
64674;SDS011;51090;51.512;11.332;2023-05-16T02:57:56;17.33;;;9.68;;
64674;SDS011;51090;51.512;11.332;2023-05-16T03:00:22;17.60;;;9.98;;
64674;SDS011;51090;51.512;11.332;2023-05-16T03:02:48;21.63;;;10.27;;
64674;SDS011;51090;51.512;11.332;2023-05-16T03:05:14;19.40;;;10.77;;
64674;SDS011;51090;51.512;11.332;2023-05-16T03:07:41;17.33;;;9.18;;
64674;SDS011;51090;51.512;11.332;2023-05-16T03:10:07;16.33;;;8.63;;
64674;SDS011;51090;51.512;11.332;2023-05-16T03:12:33;14.98;;;8.75;;
64674;SDS011;51090;51.512;11.332;2023-05-16T03:14:59;15.60;;;8.75;;
64674;SDS011;51090;51.512;11.332;2023-05-16T03:17:25;14.98;;;9.23;;
64674;SDS011;51090;51.512;11.332;2023-05-16T03:19:52;14.20;;;8.02;;
64674;SDS011;51090;51.512;11.332;2023-05-16T03:22:18;16.73;;;8.35;;
64674;SDS011;51090;51.512;11.332;2023-05-16T03:24:44;13.75;;;7.78;;
64674;SDS011;51090;51.512;11.332;2023-05-16T03:27:11;16.42;;;8.55;;
64674;SDS011;51090;51.512;11.332;2023-05-16T03:29:37;14.50;;;7.68;;
64674;SDS011;51090;51.512;11.332;2023-05-16T03:32:03;13.82;;;8.05;;
64674;SDS011;51090;51.512;11.332;2023-05-16T03:34:29;12.65;;;7.03;;
64674;SDS011;51090;51.512;11.332;2023-05-16T03:36:55;10.25;;;5.85;;
64674;SDS011;51090;51.512;11.332;2023-05-16T03:39:22;13.10;;;6.65;;
64674;SDS011;51090;51.512;11.332;2023-05-16T03:41:48;12.40;;;6.60;;
64674;SDS011;51090;51.512;11.332;2023-05-16T03:44:15;13.95;;;6.90;;
64674;SDS011;51090;51.512;11.332;2023-05-16T03:46:41;14.93;;;7.43;;
64674;SDS011;51090;51.512;11.332;2023-05-16T03:49:07;13.75;;;7.32;;
64674;SDS011;51090;51.512;11.332;2023-05-16T03:51:33;11.70;;;6.20;;
64674;SDS011;51090;51.512;11.332;2023-05-16T03:53:59;12.75;;;7.07;;
64674;SDS011;51090;51.512;11.332;2023-05-16T03:56:25;12.18;;;6.22;;
64674;SDS011;51090;51.512;11.332;2023-05-16T03:58:52;10.40;;;6.15;;
64674;SDS011;51090;51.512;11.332;2023-05-16T04:01:18;15.77;;;7.10;;
64674;SDS011;51090;51.512;11.332;2023-05-16T04:03:44;11.27;;;6.45;;
64674;SDS011;51090;51.512;11.332;2023-05-16T04:06:10;10.25;;;6.07;;
64674;SDS011;51090;51.512;11.332;2023-05-16T04:08:36;14.73;;;7.95;;
64674;SDS011;51090;51.512;11.332;2023-05-16T04:11:03;11.35;;;6.00;;
64674;SDS011;51090;51.512;11.332;2023-05-16T04:13:30;10.60;;;6.00;;
64674;SDS011;51090;51.512;11.332;2023-05-16T04:15:56;12.30;;;6.20;;
64674;SDS011;51090;51.512;11.332;2023-05-16T04:18:22;11.02;;;5.47;;
64674;SDS011;51090;51.512;11.332;2023-05-16T04:20:48;10.02;;;5.20;;
64674;SDS011;51090;51.512;11.332;2023-05-16T04:23:14;11.43;;;5.38;;
64674;SDS011;51090;51.512;11.332;2023-05-16T04:25:40;9.32;;;4.72;;
64674;SDS011;51090;51.512;11.332;2023-05-16T04:28:06;8.60;;;4.90;;
64674;SDS011;51090;51.512;11.332;2023-05-16T04:30:33;10.82;;;5.47;;
64674;SDS011;51090;51.512;11.332;2023-05-16T04:32:59;10.48;;;5.65;;
64674;SDS011;51090;51.512;11.332;2023-05-16T04:35:26;10.95;;;5.47;;
64674;SDS011;51090;51.512;11.332;2023-05-16T04:37:52;12.65;;;5.85;;
64674;SDS011;51090;51.512;11.332;2023-05-16T04:40:18;10.73;;;5.85;;
64674;SDS011;51090;51.512;11.332;2023-05-16T04:42:44;10.60;;;5.30;;
64674;SDS011;51090;51.512;11.332;2023-05-16T04:45:10;9.57;;;5.05;;
64674;SDS011;51090;51.512;11.332;2023-05-16T04:47:38;9.93;;;5.25;;
64674;SDS011;51090;51.512;11.332;2023-05-16T04:50:05;7.72;;;4.45;;
64674;SDS011;51090;51.512;11.332;2023-05-16T04:52:33;10.93;;;6.07;;
64674;SDS011;51090;51.512;11.332;2023-05-16T04:54:59;10.45;;;5.47;;
64674;SDS011;51090;51.512;11.332;2023-05-16T04:57:25;11.82;;;5.25;;
64674;SDS011;51090;51.512;11.332;2023-05-16T04:59:51;8.90;;;5.18;;
64674;SDS011;51090;51.512;11.332;2023-05-16T05:02:17;9.45;;;4.70;;
64674;SDS011;51090;51.512;11.332;2023-05-16T05:04:43;10.75;;;4.97;;
64674;SDS011;51090;51.512;11.332;2023-05-16T05:07:08;8.98;;;5.38;;
64674;SDS011;51090;51.512;11.332;2023-05-16T05:09:34;8.50;;;4.55;;
64674;SDS011;51090;51.512;11.332;2023-05-16T05:12:00;9.38;;;5.07;;
64674;SDS011;51090;51.512;11.332;2023-05-16T05:14:26;8.52;;;4.75;;
64674;SDS011;51090;51.512;11.332;2023-05-16T05:16:51;8.80;;;4.53;;
64674;SDS011;51090;51.512;11.332;2023-05-16T05:19:17;8.55;;;3.95;;
64674;SDS011;51090;51.512;11.332;2023-05-16T05:21:43;7.50;;;4.57;;
64674;SDS011;51090;51.512;11.332;2023-05-16T05:24:08;8.60;;;4.28;;
64674;SDS011;51090;51.512;11.332;2023-05-16T05:26:34;7.93;;;4.07;;
64674;SDS011;51090;51.512;11.332;2023-05-16T05:29:00;7.82;;;4.55;;
64674;SDS011;51090;51.512;11.332;2023-05-16T05:31:25;12.23;;;5.45;;
64674;SDS011;51090;51.512;11.332;2023-05-16T05:33:51;13.02;;;6.20;;
64674;SDS011;51090;51.512;11.332;2023-05-16T05:36:17;11.93;;;6.00;;
64674;SDS011;51090;51.512;11.332;2023-05-16T05:38:43;8.63;;;4.85;;
64674;SDS011;51090;51.512;11.332;2023-05-16T05:41:09;8.90;;;5.20;;
64674;SDS011;51090;51.512;11.332;2023-05-16T05:43:35;9.70;;;5.43;;
64674;SDS011;51090;51.512;11.332;2023-05-16T05:46:01;10.57;;;5.07;;
64674;SDS011;51090;51.512;11.332;2023-05-16T05:48:27;9.55;;;5.18;;
64674;SDS011;51090;51.512;11.332;2023-05-16T05:50:54;8.77;;;4.93;;
64674;SDS011;51090;51.512;11.332;2023-05-16T05:53:20;8.80;;;5.15;;
64674;SDS011;51090;51.512;11.332;2023-05-16T05:55:46;11.38;;;5.00;;
64674;SDS011;51090;51.512;11.332;2023-05-16T05:58:12;8.60;;;4.43;;
64674;SDS011;51090;51.512;11.332;2023-05-16T06:00:39;16.20;;;4.63;;
64674;SDS011;51090;51.512;11.332;2023-05-16T06:03:05;6.22;;;3.60;;
64674;SDS011;51090;51.512;11.332;2023-05-16T06:05:31;8.10;;;3.92;;
64674;SDS011;51090;51.512;11.332;2023-05-16T06:07:57;7.13;;;4.15;;
64674;SDS011;51090;51.512;11.332;2023-05-16T06:10:23;9.93;;;4.40;;
64674;SDS011;51090;51.512;11.332;2023-05-16T06:12:49;6.70;;;4.00;;
64674;SDS011;51090;51.512;11.332;2023-05-16T06:15:15;6.05;;;3.95;;
64674;SDS011;51090;51.512;11.332;2023-05-16T06:17:41;7.07;;;3.78;;
64674;SDS011;51090;51.512;11.332;2023-05-16T06:20:07;6.30;;;3.85;;
64674;SDS011;51090;51.512;11.332;2023-05-16T06:22:33;7.65;;;3.92;;
64674;SDS011;51090;51.512;11.332;2023-05-16T06:24:59;4.93;;;3.50;;
64674;SDS011;51090;51.512;11.332;2023-05-16T06:27:25;8.65;;;4.05;;
64674;SDS011;51090;51.512;11.332;2023-05-16T06:29:50;6.82;;;3.63;;
64674;SDS011;51090;51.512;11.332;2023-05-16T06:32:17;8.13;;;3.80;;
64674;SDS011;51090;51.512;11.332;2023-05-16T06:34:43;6.57;;;4.00;;
64674;SDS011;51090;51.512;11.332;2023-05-16T06:37:09;6.22;;;3.53;;
64674;SDS011;51090;51.512;11.332;2023-05-16T06:39:35;5.22;;;3.00;;
64674;SDS011;51090;51.512;11.332;2023-05-16T06:42:01;5.38;;;2.80;;
64674;SDS011;51090;51.512;11.332;2023-05-16T06:44:27;4.95;;;2.20;;
64674;SDS011;51090;51.512;11.332;2023-05-16T06:46:53;4.60;;;2.60;;
64674;SDS011;51090;51.512;11.332;2023-05-16T06:49:18;4.05;;;2.22;;
64674;SDS011;51090;51.512;11.332;2023-05-16T06:51:44;4.15;;;2.60;;
64674;SDS011;51090;51.512;11.332;2023-05-16T06:54:10;4.07;;;2.17;;
64674;SDS011;51090;51.512;11.332;2023-05-16T06:56:36;4.57;;;2.00;;
64674;SDS011;51090;51.512;11.332;2023-05-16T06:59:01;4.35;;;2.08;;
64674;SDS011;51090;51.512;11.332;2023-05-16T07:01:27;5.65;;;2.33;;
64674;SDS011;51090;51.512;11.332;2023-05-16T07:03:53;3.08;;;1.92;;
64674;SDS011;51090;51.512;11.332;2023-05-16T07:06:18;2.60;;;1.42;;
64674;SDS011;51090;51.512;11.332;2023-05-16T07:08:44;2.45;;;1.45;;
64674;SDS011;51090;51.512;11.332;2023-05-16T07:11:10;2.38;;;0.95;;
64674;SDS011;51090;51.512;11.332;2023-05-16T07:13:36;1.83;;;1.15;;
64674;SDS011;51090;51.512;11.332;2023-05-16T07:16:02;4.15;;;1.20;;
64674;SDS011;51090;51.512;11.332;2023-05-16T07:18:28;2.00;;;1.10;;
64674;SDS011;51090;51.512;11.332;2023-05-16T07:20:53;2.70;;;0.90;;
64674;SDS011;51090;51.512;11.332;2023-05-16T07:23:19;2.30;;;1.05;;
64674;SDS011;51090;51.512;11.332;2023-05-16T07:25:45;2.67;;;1.30;;
64674;SDS011;51090;51.512;11.332;2023-05-16T07:28:10;3.28;;;1.30;;
64674;SDS011;51090;51.512;11.332;2023-05-16T07:30:36;1.58;;;1.20;;
64674;SDS011;51090;51.512;11.332;2023-05-16T07:33:02;3.28;;;1.30;;
64674;SDS011;51090;51.512;11.332;2023-05-16T07:35:27;2.45;;;1.13;;
64674;SDS011;51090;51.512;11.332;2023-05-16T07:37:53;1.60;;;1.20;;
64674;SDS011;51090;51.512;11.332;2023-05-16T07:40:19;2.15;;;1.17;;
64674;SDS011;51090;51.512;11.332;2023-05-16T07:42:49;5.38;;;1.45;;
64674;SDS011;51090;51.512;11.332;2023-05-16T07:45:15;4.28;;;1.38;;
64674;SDS011;51090;51.512;11.332;2023-05-16T07:47:41;3.05;;;1.38;;
64674;SDS011;51090;51.512;11.332;2023-05-16T07:50:07;3.20;;;1.48;;
64674;SDS011;51090;51.512;11.332;2023-05-16T07:52:33;2.58;;;1.70;;
64674;SDS011;51090;51.512;11.332;2023-05-16T07:55:00;1.67;;;1.27;;
64674;SDS011;51090;51.512;11.332;2023-05-16T07:57:26;6.28;;;2.17;;
64674;SDS011;51090;51.512;11.332;2023-05-16T07:59:51;4.55;;;2.80;;
64674;SDS011;51090;51.512;11.332;2023-05-16T08:02:17;7.60;;;2.65;;
64674;SDS011;51090;51.512;11.332;2023-05-16T08:04:43;3.67;;;2.38;;
64674;SDS011;51090;51.512;11.332;2023-05-16T08:07:08;5.82;;;2.70;;
64674;SDS011;51090;51.512;11.332;2023-05-16T08:09:34;5.53;;;2.53;;
64674;SDS011;51090;51.512;11.332;2023-05-16T08:12:00;6.45;;;3.10;;
64674;SDS011;51090;51.512;11.332;2023-05-16T08:14:28;4.20;;;2.28;;
64674;SDS011;51090;51.512;11.332;2023-05-16T08:16:56;12.40;;;3.92;;
64674;SDS011;51090;51.512;11.332;2023-05-16T08:19:25;6.25;;;3.60;;
64674;SDS011;51090;51.512;11.332;2023-05-16T08:21:51;8.82;;;3.92;;
64674;SDS011;51090;51.512;11.332;2023-05-16T08:24:17;6.55;;;3.55;;
64674;SDS011;51090;51.512;11.332;2023-05-16T08:26:42;5.57;;;3.13;;
64674;SDS011;51090;51.512;11.332;2023-05-16T08:29:08;5.45;;;2.88;;
64674;SDS011;51090;51.512;11.332;2023-05-16T08:31:35;7.05;;;2.70;;
64674;SDS011;51090;51.512;11.332;2023-05-16T08:34:01;3.50;;;2.17;;
64674;SDS011;51090;51.512;11.332;2023-05-16T08:36:30;3.00;;;1.73;;
64674;SDS011;51090;51.512;11.332;2023-05-16T08:38:58;2.90;;;1.52;;
64674;SDS011;51090;51.512;11.332;2023-05-16T08:41:24;2.30;;;1.50;;
64674;SDS011;51090;51.512;11.332;2023-05-16T08:43:51;1.65;;;1.02;;
64674;SDS011;51090;51.512;11.332;2023-05-16T08:46:18;7.80;;;2.20;;
64674;SDS011;51090;51.512;11.332;2023-05-16T08:48:49;4.05;;;1.40;;
64674;SDS011;51090;51.512;11.332;2023-05-16T08:51:17;6.90;;;1.85;;
64674;SDS011;51090;51.512;11.332;2023-05-16T08:53:48;5.72;;;1.90;;
64674;SDS011;51090;51.512;11.332;2023-05-16T08:56:23;5.95;;;1.75;;
64674;SDS011;51090;51.512;11.332;2023-05-16T08:58:50;9.40;;;1.80;;
64674;SDS011;51090;51.512;11.332;2023-05-16T09:01:19;5.25;;;1.85;;
64674;SDS011;51090;51.512;11.332;2023-05-16T09:03:46;10.63;;;1.67;;
64674;SDS011;51090;51.512;11.332;2023-05-16T09:06:16;8.90;;;1.60;;
64674;SDS011;51090;51.512;11.332;2023-05-16T09:08:42;9.35;;;1.85;;
64674;SDS011;51090;51.512;11.332;2023-05-16T09:11:08;7.38;;;1.77;;
64674;SDS011;51090;51.512;11.332;2023-05-16T09:13:34;10.05;;;1.30;;
64674;SDS011;51090;51.512;11.332;2023-05-16T09:16:09;5.40;;;1.00;;
64674;SDS011;51090;51.512;11.332;2023-05-16T09:18:57;6.15;;;1.55;;
64674;SDS011;51090;51.512;11.332;2023-05-16T09:21:28;5.28;;;1.10;;
64674;SDS011;51090;51.512;11.332;2023-05-16T09:24:08;6.63;;;1.50;;
64674;SDS011;51090;51.512;11.332;2023-05-16T09:26:35;7.68;;;1.50;;
64674;SDS011;51090;51.512;11.332;2023-05-16T09:29:09;5.68;;;2.17;;
64674;SDS011;51090;51.512;11.332;2023-05-16T09:31:36;5.00;;;1.60;;
64674;SDS011;51090;51.512;11.332;2023-05-16T09:34:03;8.48;;;1.40;;
64674;SDS011;51090;51.512;11.332;2023-05-16T09:36:32;4.75;;;1.20;;
64674;SDS011;51090;51.512;11.332;2023-05-16T09:38:58;7.25;;;1.33;;
64674;SDS011;51090;51.512;11.332;2023-05-16T09:41:25;9.25;;;2.10;;
64674;SDS011;51090;51.512;11.332;2023-05-16T09:43:51;11.20;;;1.60;;
64674;SDS011;51090;51.512;11.332;2023-05-16T09:46:16;7.40;;;1.40;;
64674;SDS011;51090;51.512;11.332;2023-05-16T09:48:44;5.40;;;1.80;;
64674;SDS011;51090;51.512;11.332;2023-05-16T09:51:11;6.38;;;1.33;;
64674;SDS011;51090;51.512;11.332;2023-05-16T09:53:37;8.57;;;1.70;;
64674;SDS011;51090;51.512;11.332;2023-05-16T09:56:06;5.05;;;1.60;;
64674;SDS011;51090;51.512;11.332;2023-05-16T09:58:39;6.78;;;1.63;;
64674;SDS011;51090;51.512;11.332;2023-05-16T10:01:08;8.18;;;1.65;;
64674;SDS011;51090;51.512;11.332;2023-05-16T10:03:35;9.20;;;2.20;;
64674;SDS011;51090;51.512;11.332;2023-05-16T10:06:03;7.47;;;1.77;;
64674;SDS011;51090;51.512;11.332;2023-05-16T10:08:31;5.15;;;1.30;;
64674;SDS011;51090;51.512;11.332;2023-05-16T10:11:00;5.20;;;1.20;;
64674;SDS011;51090;51.512;11.332;2023-05-16T10:13:31;6.55;;;1.45;;
64674;SDS011;51090;51.512;11.332;2023-05-16T10:16:09;3.28;;;1.05;;
64674;SDS011;51090;51.512;11.332;2023-05-16T10:18:38;7.65;;;1.33;;
64674;SDS011;51090;51.512;11.332;2023-05-16T10:21:05;13.73;;;1.63;;
64674;SDS011;51090;51.512;11.332;2023-05-16T10:23:34;5.65;;;1.10;;
64674;SDS011;51090;51.512;11.332;2023-05-16T10:26:05;4.82;;;1.00;;
64674;SDS011;51090;51.512;11.332;2023-05-16T10:28:31;4.78;;;1.00;;
64674;SDS011;51090;51.512;11.332;2023-05-16T10:30:58;3.50;;;0.90;;
64674;SDS011;51090;51.512;11.332;2023-05-16T10:33:27;10.40;;;1.30;;
64674;SDS011;51090;51.512;11.332;2023-05-16T10:35:54;5.85;;;1.10;;
64674;SDS011;51090;51.512;11.332;2023-05-16T10:38:20;6.32;;;0.90;;
64674;SDS011;51090;51.512;11.332;2023-05-16T10:40:48;3.40;;;1.15;;
64674;SDS011;51090;51.512;11.332;2023-05-16T10:43:22;4.57;;;0.80;;
64674;SDS011;51090;51.512;11.332;2023-05-16T10:45:58;5.03;;;1.10;;
64674;SDS011;51090;51.512;11.332;2023-05-16T10:48:28;6.15;;;0.80;;
64674;SDS011;51090;51.512;11.332;2023-05-16T10:51:00;5.13;;;1.10;;
64674;SDS011;51090;51.512;11.332;2023-05-16T11:07:11;7.80;;;1.10;;
64674;SDS011;51090;51.512;11.332;2023-05-16T11:09:21;3.40;;;0.90;;
64674;SDS011;51090;51.512;11.332;2023-05-16T11:20:04;2.92;;;0.80;;
64674;SDS011;51090;51.512;11.332;2023-05-16T11:22:31;5.20;;;1.17;;
64674;SDS011;51090;51.512;11.332;2023-05-16T11:24:59;8.65;;;1.15;;
64674;SDS011;51090;51.512;11.332;2023-05-16T11:27:29;7.50;;;1.17;;
64674;SDS011;51090;51.512;11.332;2023-05-16T11:30:13;6.22;;;1.17;;
64674;SDS011;51090;51.512;11.332;2023-05-16T11:32:42;4.07;;;0.80;;
64674;SDS011;51090;51.512;11.332;2023-05-16T11:35:10;4.20;;;0.85;;
64674;SDS011;51090;51.512;11.332;2023-05-16T11:37:41;5.18;;;1.05;;
64674;SDS011;51090;51.512;11.332;2023-05-16T11:40:08;2.58;;;1.10;;
64674;SDS011;51090;51.512;11.332;2023-05-16T11:42:37;7.88;;;1.05;;
64674;SDS011;51090;51.512;11.332;2023-05-16T11:45:08;9.73;;;1.35;;
64674;SDS011;51090;51.512;11.332;2023-05-16T11:47:44;5.88;;;1.83;;
64674;SDS011;51090;51.512;11.332;2023-05-16T11:50:12;9.65;;;1.17;;
64674;SDS011;51090;51.512;11.332;2023-05-16T11:52:44;3.07;;;0.80;;
64674;SDS011;51090;51.512;11.332;2023-05-16T11:55:22;5.32;;;1.40;;
64674;SDS011;51090;51.512;11.332;2023-05-16T11:57:50;6.07;;;1.05;;
64674;SDS011;51090;51.512;11.332;2023-05-16T12:02:50;3.50;;;0.90;;
64674;SDS011;51090;51.512;11.332;2023-05-16T12:05:18;2.30;;;0.50;;
64674;SDS011;51090;51.512;11.332;2023-05-16T12:07:49;3.08;;;0.70;;
64674;SDS011;51090;51.512;11.332;2023-05-16T12:10:18;4.25;;;0.77;;
64674;SDS011;51090;51.512;11.332;2023-05-16T12:12:45;5.65;;;0.98;;
64674;SDS011;51090;51.512;11.332;2023-05-16T12:15:14;3.42;;;0.90;;
64674;SDS011;51090;51.512;11.332;2023-05-16T12:17:40;7.47;;;0.90;;
64674;SDS011;51090;51.512;11.332;2023-05-16T12:20:07;6.95;;;0.65;;
64674;SDS011;51090;51.512;11.332;2023-05-16T12:22:40;7.20;;;0.95;;
64674;SDS011;51090;51.512;11.332;2023-05-16T12:25:26;7.13;;;1.00;;
64674;SDS011;51090;51.512;11.332;2023-05-16T12:28:05;5.63;;;0.65;;
64674;SDS011;51090;51.512;11.332;2023-05-16T12:30:32;5.60;;;1.00;;
64674;SDS011;51090;51.512;11.332;2023-05-16T12:32:59;5.10;;;0.80;;
64674;SDS011;51090;51.512;11.332;2023-05-16T12:35:40;4.22;;;0.70;;
64674;SDS011;51090;51.512;11.332;2023-05-16T12:38:09;8.75;;;0.70;;
64674;SDS011;51090;51.512;11.332;2023-05-16T12:40:37;6.53;;;0.60;;
64674;SDS011;51090;51.512;11.332;2023-05-16T12:43:11;6.65;;;1.00;;
64674;SDS011;51090;51.512;11.332;2023-05-16T12:45:39;3.05;;;0.68;;
64674;SDS011;51090;51.512;11.332;2023-05-16T12:48:10;4.97;;;0.95;;
64674;SDS011;51090;51.512;11.332;2023-05-16T12:50:38;3.28;;;0.55;;
64674;SDS011;51090;51.512;11.332;2023-05-16T12:53:09;4.07;;;0.68;;
64674;SDS011;51090;51.512;11.332;2023-05-16T12:55:36;1.98;;;0.80;;
64674;SDS011;51090;51.512;11.332;2023-05-16T12:58:02;6.40;;;0.90;;
64674;SDS011;51090;51.512;11.332;2023-05-16T13:00:28;8.40;;;1.08;;
64674;SDS011;51090;51.512;11.332;2023-05-16T13:02:55;3.45;;;0.70;;
64674;SDS011;51090;51.512;11.332;2023-05-16T13:05:21;5.03;;;0.80;;
64674;SDS011;51090;51.512;11.332;2023-05-16T13:07:47;6.63;;;0.93;;
64674;SDS011;51090;51.512;11.332;2023-05-16T13:10:15;11.40;;;0.70;;
64674;SDS011;51090;51.512;11.332;2023-05-16T13:12:42;4.93;;;0.70;;
64674;SDS011;51090;51.512;11.332;2023-05-16T13:15:08;5.22;;;0.70;;
64674;SDS011;51090;51.512;11.332;2023-05-16T13:17:40;2.30;;;0.50;;
64674;SDS011;51090;51.512;11.332;2023-05-16T13:20:09;4.95;;;0.85;;
64674;SDS011;51090;51.512;11.332;2023-05-16T13:22:39;3.60;;;0.68;;
64674;SDS011;51090;51.512;11.332;2023-05-16T13:25:06;4.60;;;0.77;;
64674;SDS011;51090;51.512;11.332;2023-05-16T13:27:32;3.33;;;0.77;;
64674;SDS011;51090;51.512;11.332;2023-05-16T13:29:59;5.63;;;0.80;;
64674;SDS011;51090;51.512;11.332;2023-05-16T13:32:25;3.58;;;0.90;;
64674;SDS011;51090;51.512;11.332;2023-05-16T13:34:51;5.90;;;0.98;;
64674;SDS011;51090;51.512;11.332;2023-05-16T13:37:17;2.40;;;0.57;;
64674;SDS011;51090;51.512;11.332;2023-05-16T13:39:43;3.00;;;0.68;;
64674;SDS011;51090;51.512;11.332;2023-05-16T13:42:09;5.20;;;0.63;;
64674;SDS011;51090;51.512;11.332;2023-05-16T13:44:35;2.28;;;0.57;;
64674;SDS011;51090;51.512;11.332;2023-05-16T13:47:01;3.58;;;0.65;;
64674;SDS011;51090;51.512;11.332;2023-05-16T13:49:27;7.32;;;0.65;;
64674;SDS011;51090;51.512;11.332;2023-05-16T13:51:53;3.67;;;0.95;;
64674;SDS011;51090;51.512;11.332;2023-05-16T13:54:19;2.28;;;0.60;;
64674;SDS011;51090;51.512;11.332;2023-05-16T13:56:46;1.50;;;0.50;;
64674;SDS011;51090;51.512;11.332;2023-05-16T13:59:13;2.47;;;0.88;;
64674;SDS011;51090;51.512;11.332;2023-05-16T14:01:38;3.47;;;0.60;;
64674;SDS011;51090;51.512;11.332;2023-05-16T14:04:05;3.58;;;0.77;;
64674;SDS011;51090;51.512;11.332;2023-05-16T14:06:31;3.22;;;0.60;;
64674;SDS011;51090;51.512;11.332;2023-05-16T14:08:57;1.83;;;0.50;;
64674;SDS011;51090;51.512;11.332;2023-05-16T14:11:23;2.72;;;0.50;;
64674;SDS011;51090;51.512;11.332;2023-05-16T14:13:51;2.42;;;0.98;;
64674;SDS011;51090;51.512;11.332;2023-05-16T14:16:17;4.28;;;0.80;;
64674;SDS011;51090;51.512;11.332;2023-05-16T14:18:43;3.17;;;0.52;;
64674;SDS011;51090;51.512;11.332;2023-05-16T14:21:09;1.13;;;0.50;;
64674;SDS011;51090;51.512;11.332;2023-05-16T14:23:35;8.05;;;0.70;;
64674;SDS011;51090;51.512;11.332;2023-05-16T14:26:01;2.67;;;0.60;;
64674;SDS011;51090;51.512;11.332;2023-05-16T14:28:27;3.72;;;0.80;;
64674;SDS011;51090;51.512;11.332;2023-05-16T14:30:52;5.07;;;0.63;;
64674;SDS011;51090;51.512;11.332;2023-05-16T14:33:18;1.98;;;0.60;;
64674;SDS011;51090;51.512;11.332;2023-05-16T14:35:44;4.35;;;0.60;;
64674;SDS011;51090;51.512;11.332;2023-05-16T14:38:11;3.08;;;0.50;;
64674;SDS011;51090;51.512;11.332;2023-05-16T14:40:38;2.75;;;0.50;;
64674;SDS011;51090;51.512;11.332;2023-05-16T14:43:04;2.47;;;0.90;;
64674;SDS011;51090;51.512;11.332;2023-05-16T14:45:29;2.97;;;0.52;;
64674;SDS011;51090;51.512;11.332;2023-05-16T14:47:55;3.13;;;0.50;;
64674;SDS011;51090;51.512;11.332;2023-05-16T14:50:23;3.72;;;0.57;;
64674;SDS011;51090;51.512;11.332;2023-05-16T14:52:48;3.40;;;0.60;;
64674;SDS011;51090;51.512;11.332;2023-05-16T14:55:14;1.38;;;0.40;;
64674;SDS011;51090;51.512;11.332;2023-05-16T14:57:40;3.92;;;0.70;;
64674;SDS011;51090;51.512;11.332;2023-05-16T15:00:06;2.00;;;0.40;;
64674;SDS011;51090;51.512;11.332;2023-05-16T15:02:34;0.98;;;0.47;;
64674;SDS011;51090;51.512;11.332;2023-05-16T15:05:00;3.85;;;0.50;;
64674;SDS011;51090;51.512;11.332;2023-05-16T15:07:25;2.60;;;0.60;;
64674;SDS011;51090;51.512;11.332;2023-05-16T15:09:51;3.70;;;0.50;;
64674;SDS011;51090;51.512;11.332;2023-05-16T15:12:17;5.45;;;0.60;;